createdAt,value
2019-01-24T00:01:36.368Z,28.00
2019-01-24T00:04:05.650Z,29.52
2019-01-24T00:06:35.058Z,30.32
2019-01-24T00:09:06.610Z,32.15
2019-01-24T00:11:35.806Z,30.72
2019-01-24T00:14:05.109Z,30.40
2019-01-24T00:16:34.417Z,30.48
2019-01-24T00:19:03.614Z,32.00
2019-01-24T00:21:32.830Z,31.02
2019-01-24T00:24:02.076Z,31.55
2019-01-24T00:26:31.306Z,30.45
2019-01-24T00:29:00.540Z,31.50
2019-01-24T00:31:29.788Z,30.37
2019-01-24T00:33:58.964Z,30.43
2019-01-24T00:36:28.106Z,30.70
2019-01-24T00:38:57.274Z,31.45
2019-01-24T00:41:26.498Z,30.82
2019-01-24T00:43:55.710Z,31.48
2019-01-24T00:46:24.972Z,33.80
2019-01-24T00:48:54.100Z,31.65
2019-01-24T00:51:23.280Z,32.00
2019-01-24T00:53:52.462Z,33.00
2019-01-24T00:56:21.639Z,32.35
2019-01-24T00:58:50.831Z,32.65
2019-01-24T01:01:20.028Z,31.73
2019-01-24T01:03:49.370Z,32.10
2019-01-24T01:06:18.630Z,30.97
2019-01-24T01:08:47.791Z,32.35
2019-01-24T01:11:16.983Z,31.37
2019-01-24T01:13:46.318Z,30.90
2019-01-24T01:16:15.574Z,31.37
2019-01-24T01:18:44.861Z,29.45
2019-01-24T01:21:14.056Z,32.45
2019-01-24T01:23:43.338Z,31.70
2019-01-24T01:26:15.371Z,32.20
2019-01-24T01:28:44.625Z,31.02
2019-01-24T01:31:13.776Z,32.25
2019-01-24T01:33:43.022Z,31.25
2019-01-24T01:36:12.159Z,31.35
2019-01-24T01:38:41.328Z,30.52
2019-01-24T01:41:10.601Z,30.70
2019-01-24T01:43:39.721Z,31.60
2019-01-24T01:46:08.977Z,30.92
2019-01-24T01:48:38.205Z,30.02
2019-01-24T01:51:07.432Z,30.77
2019-01-24T01:53:36.661Z,31.70
2019-01-24T01:56:05.810Z,31.50
2019-01-24T01:58:35.005Z,29.67
2019-01-24T02:01:04.526Z,33.58
2019-01-24T02:03:33.681Z,32.80
2019-01-24T02:06:02.949Z,28.95
2019-01-24T02:08:32.150Z,30.02
2019-01-24T02:11:01.322Z,32.28
2019-01-24T02:13:30.608Z,32.58
2019-01-24T02:16:00.252Z,29.92
2019-01-24T02:18:29.407Z,31.12
2019-01-24T02:20:58.590Z,32.35
2019-01-24T02:23:27.762Z,32.33
2019-01-24T02:25:57.054Z,31.15
2019-01-24T02:28:26.282Z,32.58
2019-01-24T02:30:55.440Z,32.98
2019-01-24T02:33:24.575Z,32.85
2019-01-24T02:35:55.679Z,35.08
2019-01-24T02:38:24.955Z,34.13
2019-01-24T02:40:54.162Z,36.08
2019-01-24T02:43:23.423Z,34.92
2019-01-24T02:45:52.585Z,35.00
2019-01-24T02:48:21.841Z,35.60
2019-01-24T02:50:51.235Z,35.15
2019-01-24T02:53:20.366Z,33.83
2019-01-24T02:55:49.616Z,36.70
2019-01-24T02:58:18.784Z,35.85
2019-01-24T03:00:47.946Z,37.70
2019-01-24T03:03:17.964Z,31.45
2019-01-24T03:05:47.119Z,35.03
2019-01-24T03:08:16.369Z,35.10
2019-01-24T03:10:45.576Z,35.90
2019-01-24T03:13:14.802Z,36.25
2019-01-24T03:15:44.111Z,38.25
2019-01-24T03:18:13.269Z,36.42
2019-01-24T03:20:42.537Z,34.88
2019-01-24T03:23:11.715Z,35.63
2019-01-24T03:25:40.857Z,36.45
2019-01-24T03:28:10.011Z,34.83
2019-01-24T03:30:39.235Z,36.38
2019-01-24T03:33:08.365Z,38.25
2019-01-24T03:35:37.562Z,36.20
2019-01-24T03:38:06.853Z,34.18
2019-01-24T03:40:36.087Z,33.85
2019-01-24T03:43:05.242Z,34.13
2019-01-24T03:45:34.413Z,35.50
2019-01-24T03:48:03.621Z,34.98
2019-01-24T03:50:32.942Z,37.85
2019-01-24T03:53:02.219Z,36.98
2019-01-24T03:55:31.404Z,35.95
2019-01-24T03:58:00.559Z,34.08
2019-01-24T04:00:29.838Z,33.73
2019-01-24T04:02:59.058Z,36.45
2019-01-24T04:05:28.202Z,33.98
2019-01-24T04:07:57.359Z,34.35
2019-01-24T04:10:26.510Z,34.40
2019-01-24T04:12:55.796Z,34.98
2019-01-24T04:15:26.273Z,33.18
2019-01-24T04:17:55.545Z,34.25
2019-01-24T04:20:24.904Z,32.50
2019-01-24T04:22:54.481Z,33.65
2019-01-24T04:25:23.704Z,35.65
2019-01-24T04:27:52.918Z,35.05
2019-01-24T04:30:23.659Z,31.87
2019-01-24T04:32:52.947Z,33.50
2019-01-24T04:35:22.699Z,35.70
2019-01-24T04:37:52.008Z,33.42
2019-01-24T04:40:21.364Z,34.18
2019-01-24T04:42:51.747Z,32.70
2019-01-24T04:45:21.306Z,31.90
2019-01-24T04:47:51.235Z,31.97
2019-01-24T04:50:21.526Z,34.25
2019-01-24T04:52:50.943Z,30.27
2019-01-24T04:55:22.012Z,32.30
2019-01-24T04:57:55.004Z,32.10
2019-01-24T05:00:29.669Z,35.40
2019-01-24T05:02:58.883Z,33.95
2019-01-24T05:05:28.612Z,33.00
2019-01-24T05:07:57.821Z,33.88
2019-01-24T05:10:26.985Z,31.90
2019-01-24T05:12:56.172Z,33.60
2019-01-24T05:15:25.447Z,34.48
2019-01-24T05:17:55.287Z,34.10
2019-01-24T05:20:24.630Z,33.18
2019-01-24T05:22:53.884Z,34.33
2019-01-24T05:25:23.162Z,34.43
2019-01-24T05:27:52.771Z,34.70
2019-01-24T05:30:37.161Z,33.10
2019-01-24T05:35:44.217Z,33.75
2019-01-24T05:38:13.895Z,36.30
2019-01-24T05:40:44.307Z,32.03
2019-01-24T05:43:14.080Z,29.48
2019-01-24T05:45:43.960Z,33.05
2019-01-24T05:48:13.615Z,31.62
2019-01-24T05:50:42.844Z,32.10
2019-01-24T05:53:12.030Z,34.40
2019-01-24T05:55:41.931Z,33.98
2019-01-24T05:58:11.292Z,34.05
2019-01-24T06:00:44.754Z,32.15
2019-01-24T06:03:14.109Z,34.15
2019-01-24T06:05:43.322Z,31.70
2019-01-24T06:08:13.162Z,34.70
2019-01-24T06:10:42.492Z,32.45
2019-01-24T06:13:11.793Z,32.10
2019-01-24T06:15:42.614Z,34.88
2019-01-24T06:18:11.926Z,33.28
2019-01-24T06:20:41.202Z,35.20
2019-01-24T06:23:11.282Z,33.55
2019-01-24T06:25:40.948Z,33.53
2019-01-24T06:28:10.089Z,35.30
2019-01-24T06:30:39.393Z,35.00
2019-01-24T06:33:08.678Z,39.27
2019-01-24T06:35:38.663Z,36.25
2019-01-24T06:38:11.341Z,35.55
2019-01-24T06:40:47.903Z,37.65
2019-01-24T06:43:17.123Z,35.25
2019-01-24T06:45:47.337Z,35.85
2019-01-24T06:48:16.667Z,38.15
2019-01-24T06:50:46.278Z,36.85
2019-01-24T06:53:15.431Z,36.28
2019-01-24T06:55:44.797Z,35.85
2019-01-24T06:58:14.059Z,37.03
2019-01-24T07:00:43.339Z,38.60
2019-01-24T07:03:12.625Z,35.35
2019-01-24T07:05:42.352Z,37.88
2019-01-24T07:08:11.708Z,37.58
2019-01-24T07:10:41.290Z,35.75
2019-01-24T07:13:12.325Z,37.80
2019-01-24T07:15:42.044Z,37.75
2019-01-24T07:18:12.314Z,35.13
2019-01-24T07:20:42.200Z,34.78
2019-01-24T07:23:11.571Z,39.53
2019-01-24T07:25:41.514Z,38.38
2019-01-24T07:28:12.935Z,38.83
2019-01-24T07:30:42.270Z,39.92
2019-01-24T07:33:12.116Z,37.85
2019-01-24T07:35:41.454Z,40.83
2019-01-24T07:38:10.781Z,39.25
2019-01-24T07:40:40.089Z,37.88
2019-01-24T07:43:09.490Z,38.53
2019-01-24T07:45:40.359Z,37.20
2019-01-24T07:48:11.789Z,38.48
2019-01-24T07:50:41.058Z,37.38
2019-01-24T07:53:10.227Z,36.35
2019-01-24T07:55:40.379Z,39.18
2019-01-24T07:58:09.803Z,39.20
2019-01-24T08:00:39.292Z,38.88
2019-01-24T08:03:10.073Z,39.90
2019-01-24T08:05:39.318Z,35.65
2019-01-24T08:08:10.545Z,37.98
2019-01-24T08:10:39.923Z,38.53
2019-01-24T08:13:09.173Z,38.65
2019-01-24T08:15:38.370Z,38.55
2019-01-24T08:18:10.903Z,37.95
2019-01-24T08:20:42.030Z,36.88
2019-01-24T08:23:11.449Z,39.03
2019-01-24T08:25:41.340Z,38.73
2019-01-24T08:28:11.129Z,38.28
2019-01-24T08:30:40.361Z,38.63
2019-01-24T08:33:11.051Z,38.85
2019-01-24T08:35:49.520Z,38.35
2019-01-24T08:38:19.597Z,36.55
2019-01-24T08:40:52.246Z,39.23
2019-01-24T08:43:22.134Z,35.98
2019-01-24T08:45:51.375Z,38.80
2019-01-24T08:48:25.356Z,38.53
2019-01-24T08:50:54.838Z,39.30
2019-01-24T08:53:25.143Z,38.13
2019-01-24T08:55:54.774Z,36.40
2019-01-24T08:58:24.048Z,34.60
2019-01-24T09:00:53.756Z,36.60
2019-01-24T09:03:23.127Z,37.13
2019-01-24T09:05:52.477Z,36.75
2019-01-24T09:08:22.878Z,37.63
2019-01-24T09:10:54.165Z,38.15
2019-01-24T09:13:24.639Z,36.85
2019-01-24T09:15:54.179Z,39.03
2019-01-24T09:18:24.621Z,37.75
2019-01-24T09:20:53.997Z,38.35
2019-01-24T09:23:23.675Z,37.73
2019-01-24T09:25:53.814Z,37.13
2019-01-24T09:28:24.589Z,37.48
2019-01-24T09:30:53.923Z,40.20
2019-01-24T09:33:24.245Z,39.13
2019-01-24T09:35:54.150Z,38.85
2019-01-24T09:38:23.647Z,37.17
2019-01-24T09:40:52.938Z,38.13
2019-01-24T09:43:22.287Z,38.70
2019-01-24T09:45:51.704Z,40.23
2019-01-24T09:48:22.067Z,39.58
2019-01-24T09:50:51.491Z,38.25
2019-01-24T09:53:21.023Z,39.55
2019-01-24T09:55:50.873Z,38.95
2019-01-24T09:58:26.841Z,37.60
2019-01-24T10:01:01.150Z,38.42
2019-01-24T10:03:33.522Z,37.25
2019-01-24T10:06:03.069Z,38.35
2019-01-24T10:08:32.536Z,38.45
2019-01-24T10:11:03.297Z,38.53
2019-01-24T10:13:38.380Z,38.28
2019-01-24T10:16:08.199Z,37.83
2019-01-24T10:18:37.651Z,36.73
2019-01-24T10:21:13.041Z,40.98
2019-01-24T10:23:45.387Z,36.93
2019-01-24T10:26:15.307Z,36.50
2019-01-24T10:28:45.738Z,36.05
2019-01-24T10:31:15.213Z,39.13
2019-01-24T10:33:45.000Z,36.95
2019-01-24T10:36:14.275Z,39.00
2019-01-24T10:38:43.526Z,37.20
2019-01-24T10:41:12.875Z,38.38
2019-01-24T10:43:44.737Z,41.50
2019-01-24T10:46:14.053Z,40.40
2019-01-24T10:48:46.665Z,42.15
2019-01-24T10:51:16.350Z,37.28
2019-01-24T10:53:45.665Z,40.78
2019-01-24T10:56:15.511Z,37.90
2019-01-24T10:58:44.909Z,37.70
2019-01-24T11:01:18.849Z,39.60
2019-01-24T11:03:48.221Z,39.70
2019-01-24T11:06:17.956Z,38.30
2019-01-24T11:08:49.153Z,40.43
2019-01-24T11:11:18.535Z,38.17
2019-01-24T11:13:47.901Z,37.85
2019-01-24T11:16:17.325Z,38.75
2019-01-24T11:18:46.657Z,37.53
2019-01-24T11:21:15.951Z,40.50
2019-01-24T11:23:45.288Z,46.33
2019-01-24T11:26:14.957Z,43.10
2019-01-24T11:28:44.297Z,40.20
2019-01-24T11:31:13.700Z,42.25
2019-01-24T11:33:44.020Z,39.18
2019-01-24T11:36:15.528Z,40.88
2019-01-24T11:38:46.061Z,37.23
2019-01-24T11:41:15.402Z,40.40
2019-01-24T11:43:45.246Z,40.63
2019-01-24T11:46:14.800Z,40.25
2019-01-24T11:48:44.142Z,40.98
2019-01-24T11:51:14.042Z,41.30
2019-01-24T11:53:43.359Z,43.00
2019-01-24T11:56:13.065Z,38.15
2019-01-24T11:58:42.327Z,39.23
2019-01-24T12:01:11.557Z,43.08
2019-01-24T12:03:41.213Z,40.60
2019-01-24T12:06:10.551Z,44.30
2019-01-24T12:08:41.011Z,40.65
2019-01-24T12:11:10.650Z,40.50
2019-01-24T12:13:42.419Z,41.53
2019-01-24T12:16:11.710Z,40.35
2019-01-24T12:18:41.469Z,42.03
2019-01-24T12:21:10.881Z,44.20
2019-01-24T12:23:42.095Z,43.05
2019-01-24T12:26:11.555Z,41.85
2019-01-24T12:28:41.410Z,45.28
2019-01-24T12:31:10.732Z,44.95
2019-01-24T12:33:40.258Z,48.02
2019-01-24T12:36:10.087Z,47.60
2019-01-24T12:38:39.317Z,51.25
2019-01-24T12:41:08.668Z,47.80
2019-01-24T12:43:38.074Z,49.98
2019-01-24T12:46:07.302Z,50.08
2019-01-24T12:48:36.550Z,53.73
2019-01-24T12:51:05.911Z,50.88
2019-01-24T12:53:35.293Z,49.70
2019-01-24T12:56:04.788Z,52.55
2019-01-24T12:58:34.082Z,52.15
2019-01-24T13:01:03.442Z,51.13
2019-01-24T13:03:33.246Z,53.00
2019-01-24T13:06:02.705Z,51.05
2019-01-24T13:08:33.306Z,50.25
2019-01-24T13:11:02.698Z,50.70
2019-01-24T13:13:33.474Z,51.73
2019-01-24T13:16:05.817Z,49.33
2019-01-24T13:18:39.789Z,48.87
2019-01-24T13:21:09.149Z,49.85
2019-01-24T13:23:42.513Z,47.73
2019-01-24T13:26:11.766Z,49.27
2019-01-24T13:28:41.558Z,51.60
2019-01-24T13:31:11.484Z,47.60
2019-01-24T13:33:41.002Z,51.92
2019-01-24T13:36:10.506Z,48.95
2019-01-24T13:38:39.939Z,50.98
2019-01-24T13:41:09.211Z,49.50
2019-01-24T13:43:39.805Z,49.40
2019-01-24T13:46:09.119Z,51.25
2019-01-24T13:48:38.507Z,49.80
2019-01-24T13:51:07.731Z,51.08
2019-01-24T13:53:38.540Z,50.33
2019-01-24T13:56:07.728Z,52.98
2019-01-24T13:58:36.969Z,51.65
2019-01-24T14:01:06.411Z,50.10
2019-01-24T14:03:51.966Z,51.83
2019-01-24T14:06:21.236Z,52.60
2019-01-24T14:08:50.482Z,50.35
2019-01-24T14:11:20.653Z,52.78
2019-01-24T14:13:49.942Z,47.67
2019-01-24T14:16:19.592Z,51.15
2019-01-24T14:18:48.856Z,50.63
2019-01-24T14:21:18.130Z,50.10
2019-01-24T14:23:47.226Z,48.20
2019-01-24T14:26:16.527Z,49.30
2019-01-24T14:28:46.164Z,50.40
2019-01-24T14:31:15.381Z,51.08
2019-01-24T14:33:44.637Z,50.98
2019-01-24T14:36:15.057Z,49.90
2019-01-24T14:38:44.416Z,52.10
2019-01-24T14:41:13.755Z,49.10
2019-01-24T14:43:43.431Z,48.45
2019-01-24T14:46:14.138Z,50.98
2019-01-24T14:48:43.473Z,49.23
2019-01-24T14:51:12.702Z,48.42
2019-01-24T14:53:42.046Z,50.55
2019-01-24T14:56:11.360Z,52.73
2019-01-24T14:58:42.413Z,52.58
2019-01-24T15:01:21.120Z,50.50
2019-01-24T15:03:50.421Z,46.70
2019-01-24T15:06:19.684Z,52.70
2019-01-24T15:08:50.471Z,47.55
2019-01-24T15:11:19.825Z,50.70
2019-01-24T15:13:49.086Z,51.45
2019-01-24T15:16:20.035Z,50.83
2019-01-24T15:18:50.623Z,50.98
2019-01-24T15:21:19.937Z,48.90
2019-01-24T15:23:51.249Z,47.45
2019-01-24T15:26:20.617Z,48.45
2019-01-24T15:28:49.839Z,49.42
2019-01-24T15:31:19.121Z,47.13
2019-01-24T15:33:48.427Z,46.10
2019-01-24T15:36:21.915Z,45.23
2019-01-24T15:38:51.409Z,44.93
2019-01-24T15:41:20.837Z,46.75
2019-01-24T15:43:50.123Z,45.43
2019-01-24T15:46:20.783Z,46.75
2019-01-24T15:48:52.413Z,48.02
2019-01-24T15:51:21.627Z,47.13
2019-01-24T15:53:54.999Z,47.75
2019-01-24T15:56:24.167Z,44.95
2019-01-24T15:58:53.743Z,43.60
2019-01-24T16:01:23.565Z,39.98
2019-01-24T16:03:55.135Z,42.75
2019-01-24T16:06:24.565Z,41.05
2019-01-24T16:08:54.001Z,44.75
2019-01-24T16:11:23.322Z,41.85
2019-01-24T16:13:52.553Z,46.25
2019-01-24T16:16:21.983Z,43.08
2019-01-24T16:18:51.583Z,46.98
2019-01-24T16:21:21.225Z,46.45
2019-01-24T16:23:50.477Z,45.20
2019-01-24T16:26:19.847Z,45.15
2019-01-24T16:28:49.955Z,47.43
2019-01-24T16:31:19.714Z,43.28
2019-01-24T16:33:49.169Z,44.40
2019-01-24T16:36:19.307Z,44.42
2019-01-24T16:38:50.519Z,47.05
2019-01-24T16:41:19.897Z,47.45
2019-01-24T16:43:49.280Z,42.73
2019-01-24T16:46:19.159Z,43.78
2019-01-24T16:48:48.472Z,44.05
2019-01-24T16:51:21.685Z,47.67
2019-01-24T16:53:51.989Z,46.60
2019-01-24T16:56:21.627Z,46.00
2019-01-24T16:58:52.313Z,46.40
2019-01-24T17:01:23.205Z,45.55
2019-01-24T17:03:56.619Z,46.02
2019-01-24T17:06:26.127Z,43.40
2019-01-24T17:08:59.229Z,46.60
2019-01-24T17:11:28.499Z,43.05
2019-01-24T17:13:59.586Z,46.35
2019-01-24T17:16:29.247Z,47.13
2019-01-24T17:19:00.067Z,44.73
2019-01-24T17:21:29.674Z,47.62
2019-01-24T17:23:59.094Z,42.90
2019-01-24T17:26:29.396Z,40.78
2019-01-24T17:28:58.731Z,43.80
2019-01-24T17:31:29.335Z,48.05
2019-01-24T17:33:58.658Z,41.95
2019-01-24T17:36:33.582Z,46.45
2019-01-24T17:39:04.215Z,47.43
2019-01-24T17:41:33.875Z,43.08
2019-01-24T17:44:03.637Z,46.58
2019-01-24T17:46:33.129Z,43.38
2019-01-24T17:49:02.626Z,45.45
2019-01-24T17:51:32.221Z,42.03
2019-01-24T17:54:18.454Z,43.05
2019-01-24T17:56:48.198Z,45.52
2019-01-24T17:59:20.784Z,40.70
2019-01-24T18:01:50.656Z,43.17
2019-01-24T18:04:21.766Z,48.20
2019-01-24T18:06:51.464Z,42.70
2019-01-24T18:09:20.783Z,45.70
2019-01-24T18:11:50.135Z,44.23
2019-01-24T18:14:20.148Z,42.67
2019-01-24T18:16:50.458Z,45.43
2019-01-24T18:19:23.917Z,41.68
2019-01-24T18:22:00.075Z,43.52
2019-01-24T18:24:27.744Z,43.28
2019-01-24T18:26:57.872Z,45.20
2019-01-24T18:29:30.341Z,46.00
2019-01-24T18:32:05.233Z,45.30
2019-01-24T18:34:35.428Z,44.58
2019-01-24T18:37:05.342Z,44.38
2019-01-24T18:39:42.710Z,44.93
2019-01-24T18:42:19.110Z,39.88
2019-01-24T18:44:56.507Z,48.85
2019-01-24T18:47:27.407Z,50.00
2019-01-24T18:50:01.031Z,49.60
2019-01-24T18:52:35.457Z,44.90
2019-01-24T18:55:10.060Z,44.50
2019-01-24T18:57:39.647Z,44.83
2019-01-24T19:00:13.378Z,44.05
2019-01-24T19:02:54.357Z,43.55
2019-01-24T19:05:26.315Z,43.23
2019-01-24T19:08:00.941Z,46.33
2019-01-24T19:10:34.557Z,45.65
2019-01-24T19:13:06.681Z,48.55
2019-01-24T19:16:01.401Z,44.45
2019-01-24T19:18:32.095Z,43.65
2019-01-24T19:21:03.334Z,45.30
2019-01-24T19:23:33.257Z,42.23
2019-01-24T19:26:02.778Z,45.90
2019-01-24T19:28:33.037Z,43.90
2019-01-24T19:31:02.531Z,41.42
2019-01-24T19:33:43.263Z,48.92
2019-01-24T19:36:25.356Z,44.85
2019-01-24T19:38:59.012Z,43.95
2019-01-24T19:44:43.748Z,41.80
2019-01-24T19:47:15.603Z,46.10
2019-01-24T19:49:45.822Z,47.25
2019-01-24T19:52:16.146Z,43.78
2019-01-24T19:54:49.127Z,45.30
2019-01-24T19:57:30.143Z,42.67
2019-01-24T19:59:59.684Z,46.73
2019-01-24T20:02:50.575Z,47.53
2019-01-24T20:05:34.879Z,45.45
2019-01-24T20:08:02.655Z,42.15
2019-01-24T20:10:32.940Z,47.73
2019-01-24T20:13:08.377Z,42.43
2019-01-24T20:15:47.848Z,42.95
2019-01-24T20:18:22.050Z,44.67
2019-01-24T20:20:54.849Z,45.70
2019-01-24T20:23:27.611Z,44.88
2019-01-24T20:25:59.301Z,45.60
2019-01-24T20:28:30.799Z,45.35
2019-01-24T20:31:02.267Z,44.95
2019-01-24T20:33:38.047Z,46.70
2019-01-24T20:36:07.631Z,43.68
2019-01-24T20:38:37.775Z,43.25
2019-01-24T20:41:10.183Z,42.88
2019-01-24T20:43:39.661Z,43.65
2019-01-24T20:46:08.987Z,43.10
2019-01-24T20:48:51.139Z,42.27
2019-01-24T20:51:32.779Z,43.95
2019-01-24T20:54:06.197Z,43.65
2019-01-24T20:56:36.790Z,41.68
2019-01-24T20:59:07.111Z,42.43
2019-01-24T21:01:37.125Z,43.75
2019-01-24T21:04:09.768Z,45.58
2019-01-24T21:06:46.413Z,43.55
2019-01-24T21:09:15.810Z,44.18
2019-01-24T21:11:46.911Z,46.45
2019-01-24T21:14:16.504Z,42.85
2019-01-24T21:16:46.008Z,45.90
2019-01-24T21:19:18.443Z,46.83
2019-01-24T21:21:48.238Z,45.28
2019-01-24T21:24:17.876Z,41.80
2019-01-24T21:26:50.020Z,45.50
2019-01-24T21:29:27.112Z,44.93
2019-01-24T21:31:56.359Z,42.45
2019-01-24T21:34:25.743Z,42.38
2019-01-24T21:36:55.212Z,42.67
2019-01-24T21:39:24.664Z,40.98
2019-01-24T21:41:54.104Z,42.73
2019-01-24T21:44:23.327Z,42.05
2019-01-24T21:46:52.740Z,44.88
2019-01-24T21:49:22.104Z,44.40
2019-01-24T21:51:51.442Z,43.80
2019-01-24T21:54:20.834Z,43.10
2019-01-24T21:56:50.074Z,43.45
2019-01-24T21:59:19.320Z,44.70
2019-01-24T22:01:50.578Z,47.95
2019-01-24T22:04:19.888Z,42.38
2019-01-24T22:06:49.176Z,43.85
2019-01-24T22:09:18.350Z,48.25
2019-01-24T22:11:47.710Z,44.03
2019-01-24T22:14:16.996Z,46.77
2019-01-24T22:16:46.620Z,46.10
2019-01-24T22:19:15.884Z,41.88
2019-01-24T22:21:45.198Z,42.33
2019-01-24T22:24:14.407Z,45.10
2019-01-24T22:26:43.802Z,44.10
2019-01-24T22:29:13.046Z,44.48
2019-01-24T22:31:42.393Z,43.33
2019-01-24T22:34:11.660Z,41.58
2019-01-24T22:36:40.990Z,43.90
2019-01-24T22:39:10.787Z,44.63
2019-01-24T22:41:40.147Z,44.18
2019-01-24T22:44:09.466Z,43.38
2019-01-24T22:46:38.796Z,43.70
2019-01-24T22:49:08.264Z,41.65
2019-01-24T22:51:37.603Z,44.98
2019-01-24T22:54:06.902Z,42.27
2019-01-24T22:56:36.174Z,46.30
2019-01-24T22:59:05.382Z,46.23
2019-01-24T23:02:02.277Z,45.50
2019-01-24T23:04:31.554Z,41.33
2019-01-24T23:07:00.812Z,42.62
2019-01-24T23:09:30.021Z,44.77
2019-01-24T23:11:59.212Z,44.48
2019-01-24T23:14:28.530Z,44.50
2019-01-24T23:16:57.726Z,43.00
2019-01-24T23:19:27.017Z,42.10
2019-01-24T23:21:56.473Z,44.30
2019-01-24T23:24:25.670Z,46.77
2019-01-24T23:26:54.866Z,43.45
2019-01-24T23:29:24.179Z,42.98
2019-01-24T23:31:53.439Z,45.70
2019-01-24T23:34:22.726Z,45.38
2019-01-24T23:36:51.909Z,48.25
2019-01-24T23:39:21.281Z,47.05
2019-01-24T23:41:50.537Z,43.65
2019-01-24T23:44:19.834Z,41.53
2019-01-24T23:46:49.124Z,45.05
2019-01-24T23:49:18.418Z,45.58
2019-01-24T23:51:47.686Z,43.42
2019-01-24T23:54:16.939Z,45.92
2019-01-24T23:56:46.141Z,42.60
2019-01-24T23:59:15.382Z,48.48
